Domov               UVHVVR             MKGP            O straneh              
ZDRAVSTVENO VARSTVO RASTLIN
  MREŽA AGROMET. POSTAJ
 ► PROGNOSTIČNA OBVESTILA
AGROMETEOROLOŠKI PODATKI -
ARSO
OBVLADOVANJE TVEGANJ ZARADI
NEUGODNIH VREMENSKIH RAZMER
  ► NARAVNE NESREČE
  ► SUŠA/MOČA
  ► NAMAKANJE
  ► ŽLED (gozdarstvo)
KARTOGRAFSKI PRIKAZI
SPLETNE POVEZAVE
PROJEKTI IN PUBLIKACIJE

AGROMETEOROLOŠKA MREŽA: VREMENSKE POSTAJE IN FENOLOŠKA OPAZOVANJA

Pregled podatkov za lokacijo Maribor - BTŠ, meteorološka postaja 35810

Pregled senzorjev na lokaciji

ID Ime Zadnja
vrednost
Datum
zadnje
spremembe
Tip
senzorja
1723 Padavine (mm) 0 mm 19.2.2018 06:30 Generic 0.2 mm
1722 Relativna vlaga 2 m (% RH) 76,63 % RH 19.2.2018 06:30 Generic 0 - 100 %
1721 Temperatura 2 m (°C) -1,27 °C 19.2.2018 06:30 Generic -40 - +60 °C

Pregled podatkov zadnjih 24 ur

Zap.
št.
Datum in čas Maribor - BTŠ
Padavine Relativna
vlaga
2
m
Temperatura
2
m
1 19.2.2018 07:00
2 19.2.2018 06:30 0 76,6 -1,3
3 19.2.2018 06:00 0 80,9 -1,3
4 19.2.2018 05:30 0 82,3 -1,5
5 19.2.2018 05:00 0 83 -1,5
6 19.2.2018 04:30 0 84,2 -1,5
7 19.2.2018 04:00 0 84,5 -1,5
8 19.2.2018 03:30 0 81,3 -1,4
9 19.2.2018 03:00 0 79 -1,3
10 19.2.2018 02:30 0 76,8 -1
11 19.2.2018 02:00 0 74,1 -0,7
12 19.2.2018 01:30 0 73,6 -0,3
13 19.2.2018 01:00 0 75 -0,2
14 19.2.2018 00:30 0 77,1 0
15 19.2.2018 00:00 0 78 0,1
16 18.2.2018 23:30 0 77,9 0,3
17 18.2.2018 23:00 0 80 0
18 18.2.2018 22:30 0 82 -0,4
19 18.2.2018 22:00 0 78,4 -0,1
20 18.2.2018 21:30 0 73,8 0,3
21 18.2.2018 21:00 0 69,1 0,8
22 18.2.2018 20:30 0 64 1,4
23 18.2.2018 20:00 0 65,7 1,5
24 18.2.2018 19:30 0 64,8 1,6
25 18.2.2018 19:00 0 64,9 1,7
26 18.2.2018 18:30 0 64,2 1,8
27 18.2.2018 18:00 0 65,6 2
28 18.2.2018 17:30 0 66,9 2,1
29 18.2.2018 17:00 0 66,8 2,3
30 18.2.2018 16:30 0 65,7 2,6
31 18.2.2018 16:00 0 63,2 3
32 18.2.2018 15:30 0 62,5 3,4
33 18.2.2018 15:00 0 63,7 3,7
34 18.2.2018 14:30 0 73,3 3,4
35 18.2.2018 14:00 0 74,3 3,1
36 18.2.2018 13:30 0 76,1 2,6
37 18.2.2018 13:00 0 75,6 2,7
38 18.2.2018 12:30 0,4 79 2,8
39 18.2.2018 12:00 1,4 83,5 2,3
40 18.2.2018 11:30 2,6 84 2,1
41 18.2.2018 11:00 0,8 87,8 1,5
42 18.2.2018 10:30 0 92,6 0,9
43 18.2.2018 10:00 0 95,9 0,4
44 18.2.2018 09:30 0 97 0,3
45 18.2.2018 09:00 0 94,3 0,2
46 18.2.2018 08:30 0 97,7 0
47 18.2.2018 08:00 0 99,8 -0,2
48 18.2.2018 07:30 0 97,8 -0,2
© 2011 Ministrstvo za kmetijstvo, gozdarstvo in prehrano. Vse pravice pridržane.